Wetterdaten: Sonntag, 21.06.2015
Datum Zeit Auen-Temp. Temp gefhlt Luftfeuchte Luftdruck Regen Wind Richtung Richtung Taupunkt Windben
21.06.2015 00:00 7,6 C 7,2 C 89 % 1022,3 hPa 0,0 mm 7,3 km/h (2 Bft) SW 225 5,9 C 9,1 km/h (2 Bft)
21.06.2015 00:05 7,6 C 7,2 C 89 % 1022,3 hPa 0,0 mm 7,3 km/h (2 Bft) S-SW 202 5,9 C 4,9 km/h (1 Bft)
21.06.2015 00:10 7,6 C 7,4 C 89 % 1022,3 hPa 0,0 mm 3,9 km/h (1 Bft) SW 225 5,9 C 6,0 km/h (2 Bft)
21.06.2015 00:15 7,6 C 7,4 C 89 % 1022,0 hPa 0,0 mm 2,8 km/h (1 Bft) SO 135 5,9 C 0,0 km/h (0 Bft)
21.06.2015 00:20 7,5 C 7,3 C 89 % 1022,0 hPa 0,0 mm 2,1 km/h (1 Bft) S-SW 202 5,8 C 11,9 km/h (2 Bft)
21.06.2015 00:25 7,5 C 7,3 C 89 % 1022,0 hPa 0,0 mm 1,6 km/h (1 Bft) W 270 5,8 C 0,0 km/h (0 Bft)
21.06.2015 00:30 7,5 C 7,3 C 89 % 1022,0 hPa 0,0 mm 0,0 km/h (0 Bft) S-SO 157 5,8 C 0,0 km/h (0 Bft)
21.06.2015 00:35 7,4 C 7,2 C 89 % 1021,9 hPa 0,0 mm 0,0 km/h (0 Bft) S-SO 157 5,7 C 0,0 km/h (0 Bft)
21.06.2015 00:40 7,4 C 7,2 C 90 % 1021,9 hPa 0,0 mm 0,0 km/h (0 Bft) SO 135 5,9 C 0,0 km/h (0 Bft)
21.06.2015 00:45 7,4 C 7,2 C 90 % 1021,9 hPa 0,0 mm 0,0 km/h (0 Bft) SO 135 5,9 C 0,0 km/h (0 Bft)
21.06.2015 00:50 7,4 C 7,2 C 90 % 1021,9 hPa 0,0 mm 0,0 km/h (0 Bft) SO 135 5,9 C 0,0 km/h (0 Bft)
21.06.2015 00:55 7,3 C 7,2 C 90 % 1021,9 hPa 0,0 mm 0,0 km/h (0 Bft) O 90 5,8 C 0,0 km/h (0 Bft)
21.06.2015 01:00 7,3 C 7,2 C 87 % 1021,9 hPa 0,0 mm 0,0 km/h (0 Bft) O-NO 67 5,3 C 0,0 km/h (0 Bft)
21.06.2015 01:05 7,3 C 7,2 C 87 % 1021,9 hPa 0,0 mm 0,0 km/h (0 Bft) SO 135 5,3 C 0,0 km/h (0 Bft)
21.06.2015 01:10 7,3 C 7,2 C 90 % 1021,9 hPa 0,0 mm 0,0 km/h (0 Bft) W 270 5,8 C 0,0 km/h (0 Bft)
21.06.2015 01:15 7,3 C 7,2 C 90 % 1021,7 hPa 0,0 mm 0,0 km/h (0 Bft) SW 225 5,8 C 0,0 km/h (0 Bft)
21.06.2015 01:20 7,3 C 7,2 C 90 % 1021,7 hPa 0,0 mm 0,0 km/h (0 Bft) S-SW 202 5,8 C 0,0 km/h (0 Bft)
21.06.2015 01:25 7,3 C 7,2 C 90 % 1021,7 hPa 0,0 mm 0,8 km/h (0 Bft) W-SW 247 5,8 C 5,4 km/h (1 Bft)
21.06.2015 01:30 7,3 C 7,2 C 90 % 1021,7 hPa 0,0 mm 1,3 km/h (1 Bft) S 180 5,8 C 0,0 km/h (0 Bft)
21.06.2015 01:35 7,3 C 7,2 C 90 % 1021,8 hPa 0,0 mm 0,5 km/h (0 Bft) SO 135 5,8 C 0,0 km/h (0 Bft)
21.06.2015 01:40 7,3 C 7,2 C 90 % 1021,8 hPa 0,0 mm 0,0 km/h (0 Bft) O-SO 112 5,8 C 0,0 km/h (0 Bft)
21.06.2015 01:45 7,3 C 7,2 C 90 % 1021,8 hPa 0,0 mm 0,0 km/h (0 Bft) O-SO 112 5,8 C 0,0 km/h (0 Bft)
21.06.2015 01:50 7,2 C 7,2 C 87 % 1021,8 hPa 0,0 mm 0,0 km/h (0 Bft) O 90 5,2 C 0,0 km/h (0 Bft)
21.06.2015 01:55 7,2 C 7,1 C 90 % 1021,6 hPa 0,0 mm 0,0 km/h (0 Bft) SO 135 5,7 C 0,0 km/h (0 Bft)
21.06.2015 02:00 7,2 C 7,0 C 90 % 1021,6 hPa 0,0 mm 0,0 km/h (0 Bft) O-SO 112 5,7 C 0,0 km/h (0 Bft)
21.06.2015 02:05 7,2 C 7,0 C 90 % 1021,6 hPa 0,0 mm 0,0 km/h (0 Bft) O-NO 67 5,7 C 0,0 km/h (0 Bft)
21.06.2015 02:10 7,2 C 7,0 C 90 % 1021,6 hPa 0,0 mm 0,0 km/h (0 Bft) SO 135 5,7 C 0,0 km/h (0 Bft)
21.06.2015 02:15 7,1 C 7,0 C 88 % 1021,4 hPa 0,0 mm 0,0 km/h (0 Bft) W 270 5,2 C 0,0 km/h (0 Bft)
21.06.2015 02:20 7,1 C 7,0 C 88 % 1021,4 hPa 0,0 mm 0,0 km/h (0 Bft) SO 135 5,2 C 0,0 km/h (0 Bft)
21.06.2015 02:25 7,1 C 7,0 C 90 % 1021,4 hPa 0,0 mm 0,0 km/h (0 Bft) SO 135 5,6 C 0,0 km/h (0 Bft)
21.06.2015 02:30 7,0 C 6,9 C 90 % 1021,4 hPa 0,0 mm 0,0 km/h (0 Bft) S 180 5,5 C 0,0 km/h (0 Bft)
21.06.2015 02:35 7,0 C 6,8 C 90 % 1021,2 hPa 0,0 mm 0,0 km/h (0 Bft) S-SO 157 5,5 C 0,0 km/h (0 Bft)
21.06.2015 02:40 7,0 C 6,8 C 91 % 1021,2 hPa 0,0 mm 0,0 km/h (0 Bft) O-SO 112 5,6 C 0,0 km/h (0 Bft)
21.06.2015 02:45 7,0 C 6,8 C 91 % 1021,2 hPa 0,0 mm 0,0 km/h (0 Bft) SO 135 5,6 C 0,0 km/h (0 Bft)
21.06.2015 02:50 7,0 C 6,8 C 91 % 1021,2 hPa 0,0 mm 0,0 km/h (0 Bft) O-SO 112 5,6 C 0,0 km/h (0 Bft)
21.06.2015 02:55 7,0 C 6,8 C 91 % 1021,1 hPa 0,0 mm 0,0 km/h (0 Bft) W 270 5,6 C 0,0 km/h (0 Bft)
21.06.2015 03:00 7,0 C 6,8 C 91 % 1021,1 hPa 0,0 mm 0,0 km/h (0 Bft) W-SW 247 5,6 C 0,0 km/h (0 Bft)
21.06.2015 03:05 7,0 C 6,8 C 91 % 1021,1 hPa 0,0 mm 0,0 km/h (0 Bft) SO 135 5,6 C 0,0 km/h (0 Bft)
21.06.2015 03:10 6,9 C 6,9 C 88 % 1021,1 hPa 0,0 mm 0,0 km/h (0 Bft) SO 135 5,1 C 0,0 km/h (0 Bft)
21.06.2015 03:15 6,9 C 6,9 C 88 % 1021,1 hPa 0,0 mm 0,0 km/h (0 Bft) S-SO 157 5,1 C 0,0 km/h (0 Bft)
21.06.2015 03:20 7,0 C 6,9 C 91 % 1021,1 hPa 0,0 mm 0,5 km/h (0 Bft) S 180 5,6 C 0,0 km/h (0 Bft)
21.06.2015 03:25 7,0 C 6,9 C 91 % 1021,1 hPa 0,0 mm 0,5 km/h (0 Bft) O-SO 112 5,6 C 0,0 km/h (0 Bft)
21.06.2015 03:30 7,0 C 6,9 C 91 % 1021,1 hPa 0,0 mm 0,5 km/h (0 Bft) SW 225 5,6 C 3,4 km/h (1 Bft)
21.06.2015 03:35 7,0 C 6,9 C 91 % 1020,9 hPa 0,0 mm 1,6 km/h (1 Bft) W-SW 247 5,6 C 3,9 km/h (1 Bft)
21.06.2015 03:40 7,0 C 6,9 C 91 % 1020,9 hPa 0,0 mm 2,6 km/h (1 Bft) W-SW 247 5,6 C 8,3 km/h (2 Bft)
21.06.2015 03:45 7,1 C 7,0 C 91 % 1020,9 hPa 0,0 mm 3,4 km/h (1 Bft) S 180 5,7 C 3,1 km/h (1 Bft)
21.06.2015 03:50 7,1 C 7,0 C 91 % 1020,9 hPa 0,0 mm 3,9 km/h (1 Bft) SW 225 5,7 C 7,5 km/h (2 Bft)
21.06.2015 03:55 7,1 C 7,1 C 88 % 1020,9 hPa 0,0 mm 3,4 km/h (1 Bft) S-SW 202 5,2 C 4,9 km/h (1 Bft)
21.06.2015 04:00 7,2 C 7,1 C 91 % 1020,9 hPa 0,0 mm 2,1 km/h (1 Bft) S-SO 157 5,8 C 0,0 km/h (0 Bft)
21.06.2015 04:05 7,1 C 7,0 C 91 % 1020,9 hPa 0,0 mm 1,0 km/h (0 Bft) SW 225 5,7 C 0,0 km/h (0 Bft)
21.06.2015 04:10 7,1 C 7,0 C 91 % 1020,9 hPa 0,0 mm 0,3 km/h (0 Bft) SO 135 5,7 C 0,0 km/h (0 Bft)
21.06.2015 04:15 7,1 C 7,0 C 91 % 1020,8 hPa 0,0 mm 0,0 km/h (0 Bft) SO 135 5,7 C 0,0 km/h (0 Bft)
21.06.2015 04:20 7,0 C 6,9 C 91 % 1020,8 hPa 0,0 mm 0,3 km/h (0 Bft) SW 225 5,6 C 4,7 km/h (1 Bft)
21.06.2015 04:25 6,9 C 6,8 C 91 % 1020,8 hPa 0,0 mm 0,3 km/h (0 Bft) W-SW 247 5,5 C 0,0 km/h (0 Bft)
21.06.2015 04:30 6,9 C 6,7 C 91 % 1020,8 hPa 0,0 mm 0,3 km/h (0 Bft) N-NO 22 5,5 C 0,0 km/h (0 Bft)
21.06.2015 04:35 6,9 C 6,7 C 91 % 1020,8 hPa 0,0 mm 0,0 km/h (0 Bft) SO 135 5,5 C 0,0 km/h (0 Bft)
21.06.2015 04:40 6,8 C 6,6 C 91 % 1020,8 hPa 0,0 mm 0,0 km/h (0 Bft) S-SO 157 5,4 C 0,0 km/h (0 Bft)
21.06.2015 04:45 6,8 C 6,6 C 91 % 1020,8 hPa 0,0 mm 0,0 km/h (0 Bft) W-SW 247 5,4 C 0,0 km/h (0 Bft)
21.06.2015 04:50 6,9 C 6,7 C 91 % 1020,8 hPa 0,0 mm 0,5 km/h (0 Bft) SO 135 5,5 C 0,0 km/h (0 Bft)
21.06.2015 04:55 6,9 C 6,7 C 91 % 1020,8 hPa 0,0 mm 0,5 km/h (0 Bft) O-SO 112 5,5 C 0,0 km/h (0 Bft)
21.06.2015 05:00 6,9 C 6,7 C 91 % 1020,8 hPa 0,0 mm 0,0 km/h (0 Bft) S-SW 202 5,5 C 3,6 km/h (1 Bft)
21.06.2015 05:05 6,9 C 6,7 C 91 % 1020,8 hPa 0,0 mm 0,3 km/h (0 Bft) S-SO 157 5,5 C 0,0 km/h (0 Bft)
21.06.2015 05:10 6,9 C 6,8 C 88 % 1020,8 hPa 0,0 mm 0,3 km/h (0 Bft) S-SO 157 5,1 C 0,0 km/h (0 Bft)
21.06.2015 05:15 6,9 C 6,9 C 88 % 1020,7 hPa 0,0 mm 0,0 km/h (0 Bft) S 180 5,1 C 0,0 km/h (0 Bft)
21.06.2015 05:20 7,0 C 7,0 C 88 % 1020,7 hPa 0,0 mm 0,5 km/h (0 Bft) SW 225 5,2 C 3,9 km/h (1 Bft)
21.06.2015 05:25 7,0 C 7,0 C 88 % 1020,7 hPa 0,0 mm 0,5 km/h (0 Bft) SW 225 5,2 C 0,0 km/h (0 Bft)
21.06.2015 05:30 7,0 C 7,0 C 88 % 1020,7 hPa 0,0 mm 1,3 km/h (1 Bft) S-SO 157 5,2 C 0,0 km/h (0 Bft)
21.06.2015 05:35 7,1 C 7,0 C 92 % 1020,4 hPa 0,0 mm 1,8 km/h (1 Bft) S-SW 202 5,9 C 4,1 km/h (1 Bft)
21.06.2015 05:40 7,1 C 7,0 C 91 % 1020,4 hPa 0,0 mm 1,8 km/h (1 Bft) S 180 5,7 C 0,0 km/h (0 Bft)
21.06.2015 05:45 7,1 C 7,0 C 91 % 1020,4 hPa 0,0 mm 2,3 km/h (1 Bft) S-SW 202 5,7 C 4,1 km/h (1 Bft)
21.06.2015 05:50 7,0 C 6,9 C 91 % 1020,4 hPa 0,0 mm 1,6 km/h (1 Bft) S-SW 202 5,6 C 0,0 km/h (0 Bft)
21.06.2015 05:55 7,0 C 7,0 C 88 % 1020,6 hPa 0,0 mm 1,3 km/h (1 Bft) SW 225 5,2 C 6,0 km/h (2 Bft)
21.06.2015 06:00 7,1 C 7,0 C 92 % 1020,6 hPa 0,0 mm 1,6 km/h (1 Bft) W 270 5,9 C 3,4 km/h (1 Bft)
21.06.2015 06:05 7,1 C 7,0 C 92 % 1020,6 hPa 0,0 mm 1,8 km/h (1 Bft) S-SO 157 5,9 C 3,9 km/h (1 Bft)
21.06.2015 06:10 7,3 C 7,2 C 92 % 1020,6 hPa 0,0 mm 3,4 km/h (1 Bft) W-SW 247 6,1 C 10,1 km/h (2 Bft)
21.06.2015 06:15 7,4 C 7,3 C 92 % 1020,6 hPa 0,0 mm 4,1 km/h (1 Bft) S-SO 157 6,2 C 4,7 km/h (1 Bft)
21.06.2015 06:20 7,5 C 7,4 C 88 % 1020,6 hPa 0,0 mm 4,7 km/h (1 Bft) W-SW 247 5,6 C 6,2 km/h (2 Bft)
21.06.2015 06:25 7,5 C 7,5 C 88 % 1020,6 hPa 0,0 mm 3,4 km/h (1 Bft) W-SW 247 5,6 C 0,0 km/h (0 Bft)
21.06.2015 06:30 7,6 C 7,5 C 92 % 1020,6 hPa 0,0 mm 3,1 km/h (1 Bft) N-NO 22 6,4 C 3,4 km/h (1 Bft)
21.06.2015 06:35 7,6 C 7,6 C 88 % 1020,6 hPa 0,0 mm 3,1 km/h (1 Bft) S-SO 157 5,7 C 0,0 km/h (0 Bft)
21.06.2015 06:40 7,7 C 7,7 C 88 % 1020,6 hPa 0,0 mm 3,4 km/h (1 Bft) SW 225 5,8 C 0,0 km/h (0 Bft)
21.06.2015 06:45 7,7 C 7,8 C 88 % 1020,6 hPa 0,0 mm 4,4 km/h (1 Bft) W-SW 247 5,8 C 3,4 km/h (1 Bft)
21.06.2015 06:50 7,8 C 7,9 C 88 % 1020,6 hPa 0,0 mm 6,0 km/h (2 Bft) SW 225 5,9 C 4,9 km/h (1 Bft)
21.06.2015 06:55 7,9 C 7,8 C 88 % 1020,9 hPa 0,0 mm 6,5 km/h (2 Bft) W-SW 247 6,0 C 7,0 km/h (2 Bft)
21.06.2015 07:00 8,0 C 8,0 C 88 % 1020,9 hPa 0,0 mm 5,7 km/h (1 Bft) S 180 6,1 C 7,0 km/h (2 Bft)
21.06.2015 07:05 8,1 C 8,1 C 88 % 1020,9 hPa 0,0 mm 4,1 km/h (1 Bft) W-SW 247 6,2 C 2,6 km/h (1 Bft)
21.06.2015 07:10 8,1 C 8,1 C 88 % 1020,9 hPa 0,0 mm 3,9 km/h (1 Bft) SW 225 6,2 C 7,3 km/h (2 Bft)
21.06.2015 07:15 8,1 C 8,1 C 88 % 1020,8 hPa 0,0 mm 4,4 km/h (1 Bft) S-SO 157 6,2 C 3,1 km/h (1 Bft)
21.06.2015 07:20 8,1 C 8,1 C 88 % 1020,8 hPa 0,0 mm 5,2 km/h (1 Bft) SW 225 6,2 C 9,6 km/h (2 Bft)
21.06.2015 07:25 8,2 C 8,1 C 88 % 1020,8 hPa 0,7 mm 3,9 km/h (1 Bft) SW 225 6,3 C 2,8 km/h (1 Bft)
21.06.2015 07:30 8,4 C 8,2 C 90 % 1020,8 hPa 0,0 mm 2,1 km/h (1 Bft) SW 225 6,9 C 5,4 km/h (1 Bft)
21.06.2015 07:35 8,4 C 8,3 C 90 % 1020,9 hPa 0,0 mm 2,3 km/h (1 Bft) SW 225 6,9 C 3,6 km/h (1 Bft)
21.06.2015 07:40 8,4 C 8,2 C 90 % 1020,9 hPa 0,0 mm 3,9 km/h (1 Bft) S 180 6,9 C 4,4 km/h (1 Bft)
21.06.2015 07:45 8,4 C 8,2 C 90 % 1020,9 hPa 0,0 mm 4,7 km/h (1 Bft) W 270 6,9 C 6,0 km/h (2 Bft)
21.06.2015 07:50 8,5 C 8,4 C 87 % 1020,9 hPa 0,0 mm 3,9 km/h (1 Bft) SW 225 6,5 C 9,6 km/h (2 Bft)
21.06.2015 07:55 8,6 C 8,4 C 90 % 1020,9 hPa 0,0 mm 2,6 km/h (1 Bft) S 180 7,1 C 0,0 km/h (0 Bft)
21.06.2015 08:00 8,6 C 8,5 C 87 % 1020,9 hPa 0,0 mm 2,1 km/h (1 Bft) S-SW 202 6,6 C 3,6 km/h (1 Bft)
21.06.2015 08:05 8,7 C 8,7 C 87 % 1020,9 hPa 0,0 mm 1,0 km/h (0 Bft) NW 315 6,7 C 0,0 km/h (0 Bft)
21.06.2015 08:10 8,7 C 8,9 C 87 % 1020,9 hPa 0,0 mm 0,5 km/h (0 Bft) NW 315 6,7 C 0,0 km/h (0 Bft)
21.06.2015 08:15 8,9 C 9,1 C 87 % 1020,9 hPa 0,0 mm 0,0 km/h (0 Bft) NW 315 6,9 C 0,0 km/h (0 Bft)
21.06.2015 08:20 9,1 C 9,4 C 87 % 1020,9 hPa 0,0 mm 0,0 km/h (0 Bft) W 270 7,1 C 0,0 km/h (0 Bft)
21.06.2015 08:25 9,2 C 9,6 C 87 % 1020,9 hPa 0,0 mm 0,8 km/h (0 Bft) S 180 7,2 C 6,7 km/h (2 Bft)
21.06.2015 08:30 9,5 C 9,8 C 87 % 1020,9 hPa 0,0 mm 2,3 km/h (1 Bft) W 270 7,4 C 6,5 km/h (2 Bft)
21.06.2015 08:35 9,5 C 9,7 C 87 % 1020,8 hPa 0,0 mm 3,6 km/h (1 Bft) SW 225 7,4 C 5,4 km/h (1 Bft)
21.06.2015 08:40 9,7 C 10,1 C 87 % 1020,8 hPa 0,0 mm 2,6 km/h (1 Bft) W-NW 292 7,6 C 2,6 km/h (1 Bft)
21.06.2015 08:45 9,9 C 10,4 C 87 % 1020,8 hPa 0,0 mm 1,6 km/h (1 Bft) NW 315 7,8 C 3,1 km/h (1 Bft)
21.06.2015 08:50 10,0 C 10,8 C 86 % 1020,8 hPa 0,0 mm 1,6 km/h (1 Bft) NW 315 7,8 C 7,8 km/h (2 Bft)
21.06.2015 08:55 10,1 C 11,0 C 86 % 1021,0 hPa 0,0 mm 2,1 km/h (1 Bft) W 270 7,9 C 2,6 km/h (1 Bft)
21.06.2015 09:00 10,2 C 11,1 C 86 % 1021,0 hPa 0,0 mm 2,6 km/h (1 Bft) S-SW 202 8,0 C 4,9 km/h (1 Bft)
21.06.2015 09:05 10,2 C 11,2 C 86 % 1021,0 hPa 0,0 mm 2,3 km/h (1 Bft) S-SO 157 8,0 C 4,4 km/h (1 Bft)
21.06.2015 09:10 10,4 C 11,5 C 86 % 1021,0 hPa 0,0 mm 2,8 km/h (1 Bft) S 180 8,2 C 6,5 km/h (2 Bft)
21.06.2015 09:15 10,4 C 11,6 C 86 % 1021,1 hPa 0,0 mm 3,1 km/h (1 Bft) W-SW 247 8,2 C 2,8 km/h (1 Bft)
21.06.2015 09:20 10,6 C 11,9 C 86 % 1021,1 hPa 0,0 mm 2,8 km/h (1 Bft) SW 225 8,4 C 6,0 km/h (2 Bft)
21.06.2015 09:25 10,5 C 11,8 C 86 % 1021,1 hPa 0,0 mm 2,6 km/h (1 Bft) W-NW 292 8,3 C 0,0 km/h (0 Bft)
21.06.2015 09:30 10,5 C 11,5 C 85 % 1021,1 hPa 0,0 mm 4,1 km/h (1 Bft) NW 315 8,1 C 8,0 km/h (2 Bft)
21.06.2015 09:35 10,5 C 11,4 C 85 % 1021,4 hPa 0,0 mm 4,1 km/h (1 Bft) NW 315 8,1 C 7,5 km/h (2 Bft)
21.06.2015 09:40 10,5 C 11,4 C 85 % 1021,4 hPa 0,0 mm 3,6 km/h (1 Bft) NW 315 8,1 C 0,0 km/h (0 Bft)
21.06.2015 09:45 10,7 C 11,6 C 85 % 1021,4 hPa 0,0 mm 2,3 km/h (1 Bft) W 270 8,3 C 5,2 km/h (1 Bft)
21.06.2015 09:50 10,8 C 11,9 C 85 % 1021,4 hPa 0,0 mm 2,1 km/h (1 Bft) W 270 8,4 C 3,6 km/h (1 Bft)
21.06.2015 09:55 10,7 C 11,9 C 85 % 1020,9 hPa 0,0 mm 2,8 km/h (1 Bft) W-NW 292 8,3 C 3,6 km/h (1 Bft)
21.06.2015 10:00 10,9 C 12,4 C 85 % 1020,9 hPa 0,0 mm 2,6 km/h (1 Bft) W-SW 247 8,5 C 12,4 km/h (3 Bft)
21.06.2015 10:05 11,1 C 12,8 C 85 % 1020,9 hPa 0,0 mm 3,1 km/h (1 Bft) S-SW 202 8,7 C 7,5 km/h (2 Bft)
21.06.2015 10:10 11,4 C 13,5 C 84 % 1020,9 hPa 0,0 mm 3,4 km/h (1 Bft) SW 225 8,8 C 5,4 km/h (1 Bft)
21.06.2015 10:15 11,4 C 14,0 C 84 % 1020,8 hPa 0,0 mm 2,3 km/h (1 Bft) SW 225 8,8 C 3,4 km/h (1 Bft)
21.06.2015 10:20 11,5 C 14,0 C 84 % 1020,8 hPa 0,0 mm 2,1 km/h (1 Bft) W 270 8,9 C 12,7 km/h (3 Bft)
21.06.2015 10:25 11,4 C 13,7 C 83 % 1020,8 hPa 0,0 mm 2,6 km/h (1 Bft) NW 315 8,6 C 5,2 km/h (1 Bft)
21.06.2015 10:30 11,2 C 12,8 C 83 % 1020,8 hPa 0,0 mm 5,2 km/h (1 Bft) W 270 8,4 C 16,6 km/h (3 Bft)
21.06.2015 10:35 11,0 C 12,3 C 83 % 1020,9 hPa 0,0 mm 5,2 km/h (1 Bft) W 270 8,2 C 7,0 km/h (2 Bft)
21.06.2015 10:40 10,7 C 11,2 C 83 % 1020,9 hPa 0,0 mm 3,6 km/h (1 Bft) NW 315 7,9 C 0,0 km/h (0 Bft)
21.06.2015 10:45 10,6 C 10,8 C 83 % 1020,9 hPa 0,0 mm 3,4 km/h (1 Bft) SW 225 7,8 C 8,0 km/h (2 Bft)
21.06.2015 10:50 10,7 C 10,9 C 83 % 1020,9 hPa 0,0 mm 1,8 km/h (1 Bft) SO 135 7,9 C 0,0 km/h (0 Bft)
21.06.2015 10:55 10,7 C 11,1 C 83 % 1021,0 hPa 0,0 mm 1,8 km/h (1 Bft) SW 225 7,9 C 4,1 km/h (1 Bft)
21.06.2015 11:00 10,8 C 11,0 C 83 % 1021,0 hPa 0,0 mm 1,6 km/h (1 Bft) S-SO 157 8,0 C 8,3 km/h (2 Bft)
21.06.2015 11:05 10,7 C 10,8 C 83 % 1021,0 hPa 0,0 mm 1,8 km/h (1 Bft) O-NO 67 7,9 C 0,0 km/h (0 Bft)
21.06.2015 11:10 10,5 C 10,6 C 83 % 1021,0 hPa 0,0 mm 3,4 km/h (1 Bft) S 180 7,7 C 3,1 km/h (1 Bft)
21.06.2015 11:15 10,5 C 10,7 C 83 % 1020,9 hPa 0,0 mm 2,3 km/h (1 Bft) S 180 7,7 C 3,6 km/h (1 Bft)
21.06.2015 11:20 10,6 C 11,0 C 83 % 1020,9 hPa 0,0 mm 1,0 km/h (0 Bft) S 180 7,8 C 0,0 km/h (0 Bft)
21.06.2015 11:25 10,7 C 11,3 C 83 % 1020,9 hPa 0,0 mm 1,0 km/h (0 Bft) W-NW 292 7,9 C 3,6 km/h (1 Bft)
21.06.2015 11:30 11,1 C 12,4 C 83 % 1020,9 hPa 0,0 mm 1,8 km/h (1 Bft) NW 315 8,3 C 3,6 km/h (1 Bft)
21.06.2015 11:35 11,2 C 13,0 C 83 % 1020,8 hPa 0,0 mm 2,3 km/h (1 Bft) NW 315 8,4 C 5,4 km/h (1 Bft)
21.06.2015 11:40 11,3 C 13,2 C 82 % 1020,8 hPa 0,0 mm 2,8 km/h (1 Bft) NW 315 8,3 C 3,6 km/h (1 Bft)
21.06.2015 11:45 11,3 C 13,1 C 82 % 1020,8 hPa 0,0 mm 2,8 km/h (1 Bft) NW 315 8,3 C 2,6 km/h (1 Bft)
21.06.2015 11:50 11,1 C 12,4 C 82 % 1020,8 hPa 0,0 mm 2,1 km/h (1 Bft) NW 315 8,1 C 3,1 km/h (1 Bft)
21.06.2015 11:55 10,9 C 12,1 C 82 % 1020,9 hPa 0,0 mm 2,6 km/h (1 Bft) NW 315 7,9 C 0,0 km/h (0 Bft)
21.06.2015 12:00 10,8 C 11,9 C 82 % 1020,9 hPa 0,0 mm 2,8 km/h (1 Bft) W-NW 292 7,9 C 7,3 km/h (2 Bft)
21.06.2015 12:05 10,8 C 11,8 C 82 % 1020,9 hPa 0,0 mm 2,8 km/h (1 Bft) W-SW 247 7,9 C 4,4 km/h (1 Bft)
21.06.2015 12:10 10,7 C 11,7 C 82 % 1020,9 hPa 0,0 mm 1,6 km/h (1 Bft) W-SW 247 7,8 C 0,0 km/h (0 Bft)
21.06.2015 12:15 10,8 C 11,9 C 82 % 1020,8 hPa 0,0 mm 0,5 km/h (0 Bft) NW 315 7,9 C 0,0 km/h (0 Bft)
21.06.2015 12:20 10,8 C 12,1 C 82 % 1020,8 hPa 0,0 mm 1,3 km/h (1 Bft) W 270 7,9 C 7,0 km/h (2 Bft)
21.06.2015 12:25 10,9 C 12,1 C 82 % 1020,8 hPa 0,0 mm 2,1 km/h (1 Bft) SW 225 7,9 C 0,0 km/h (0 Bft)
21.06.2015 12:30 11,1 C 12,5 C 81 % 1020,8 hPa 0,0 mm 1,8 km/h (1 Bft) SW 225 8,0 C 0,0 km/h (0 Bft)
21.06.2015 12:35 11,2 C 12,8 C 81 % 1020,8 hPa 0,0 mm 1,6 km/h (1 Bft) S-SW 202 8,1 C 3,1 km/h (1 Bft)
21.06.2015 12:40 11,4 C 13,2 C 81 % 1020,8 hPa 0,0 mm 2,3 km/h (1 Bft) S-SW 202 8,3 C 0,0 km/h (0 Bft)
21.06.2015 12:45 11,5 C 13,5 C 81 % 1020,8 hPa 0,0 mm 3,4 km/h (1 Bft) SO 135 8,4 C 3,1 km/h (1 Bft)
21.06.2015 12:50 11,8 C 14,2 C 81 % 1020,8 hPa 0,0 mm 3,6 km/h (1 Bft) S-SO 157 8,6 C 2,8 km/h (1 Bft)
21.06.2015 12:55 12,0 C 14,9 C 81 % 1020,6 hPa 0,0 mm 3,9 km/h (1 Bft) W 270 8,8 C 10,6 km/h (2 Bft)
21.06.2015 13:00 12,3 C 15,2 C 80 % 1020,6 hPa 0,0 mm 4,9 km/h (1 Bft) W 270 8,9 C 2,8 km/h (1 Bft)
21.06.2015 13:05 12,3 C 15,3 C 79 % 1020,6 hPa 0,0 mm 6,2 km/h (2 Bft) SW 225 8,8 C 0,0 km/h (0 Bft)
21.06.2015 13:10 12,5 C 15,4 C 79 % 1020,6 hPa 0,0 mm 4,1 km/h (1 Bft) W 270 9,0 C 2,8 km/h (1 Bft)
21.06.2015 13:15 12,5 C 15,3 C 79 % 1020,6 hPa 0,0 mm 3,1 km/h (1 Bft) W-SW 247 9,0 C 0,0 km/h (0 Bft)
21.06.2015 13:20 12,5 C 15,4 C 78 % 1020,6 hPa 0,0 mm 3,6 km/h (1 Bft) W 270 8,8 C 6,0 km/h (2 Bft)
21.06.2015 13:25 12,4 C 15,2 C 78 % 1020,6 hPa 0,0 mm 3,4 km/h (1 Bft) W 270 8,7 C 3,4 km/h (1 Bft)
21.06.2015 13:30 12,4 C 15,0 C 78 % 1020,6 hPa 0,0 mm 2,8 km/h (1 Bft) SW 225 8,7 C 10,6 km/h (2 Bft)
21.06.2015 13:35 12,5 C 15,1 C 78 % 1020,7 hPa 0,0 mm 2,8 km/h (1 Bft) N-NW 337 8,8 C 7,0 km/h (2 Bft)
21.06.2015 13:40 12,8 C 15,7 C 77 % 1020,7 hPa 0,0 mm 4,4 km/h (1 Bft) W 270 8,9 C 7,0 km/h (2 Bft)
21.06.2015 13:45 13,1 C 16,3 C 77 % 1020,7 hPa 0,0 mm 4,1 km/h (1 Bft) S-SW 202 9,2 C 5,4 km/h (1 Bft)
21.06.2015 13:50 13,3 C 16,7 C 76 % 1020,7 hPa 0,0 mm 4,4 km/h (1 Bft) W-SW 247 9,2 C 4,9 km/h (1 Bft)
21.06.2015 13:55 13,2 C 16,7 C 75 % 1020,7 hPa 0,0 mm 4,4 km/h (1 Bft) W-SW 247 8,9 C 5,2 km/h (1 Bft)
21.06.2015 14:00 13,3 C 16,8 C 75 % 1020,7 hPa 0,0 mm 5,4 km/h (1 Bft) W-SW 247 9,0 C 12,7 km/h (3 Bft)
21.06.2015 14:05 13,3 C 16,6 C 74 % 1020,7 hPa 0,0 mm 6,5 km/h (2 Bft) W-NW 292 8,8 C 7,0 km/h (2 Bft)
21.06.2015 14:10 13,3 C 16,1 C 74 % 1020,7 hPa 0,0 mm 6,7 km/h (2 Bft) W 270 8,8 C 5,7 km/h (1 Bft)
21.06.2015 14:15 13,2 C 15,8 C 74 % 1020,7 hPa 0,0 mm 5,7 km/h (1 Bft) W-NW 292 8,7 C 0,0 km/h (0 Bft)
21.06.2015 14:20 13,2 C 15,8 C 74 % 1020,7 hPa 0,0 mm 5,4 km/h (1 Bft) W-SW 247 8,7 C 5,4 km/h (1 Bft)
21.06.2015 14:25 13,2 C 15,7 C 74 % 1020,7 hPa 0,0 mm 3,9 km/h (1 Bft) W 270 8,7 C 4,4 km/h (1 Bft)
21.06.2015 14:30 13,1 C 15,4 C 75 % 1020,7 hPa 0,0 mm 2,3 km/h (1 Bft) NW 315 8,8 C 4,4 km/h (1 Bft)
21.06.2015 14:35 13,0 C 14,9 C 75 % 1020,8 hPa 0,0 mm 2,8 km/h (1 Bft) NW 315 8,7 C 3,4 km/h (1 Bft)
21.06.2015 14:40 13,0 C 14,5 C 74 % 1020,8 hPa 0,0 mm 4,4 km/h (1 Bft) W-NW 292 8,5 C 6,2 km/h (2 Bft)
21.06.2015 14:45 13,2 C 14,9 C 75 % 1020,8 hPa 0,0 mm 4,7 km/h (1 Bft) W-NW 292 8,9 C 11,4 km/h (2 Bft)
21.06.2015 14:50 13,5 C 15,8 C 74 % 1020,8 hPa 0,0 mm 4,7 km/h (1 Bft) NW 315 9,0 C 8,8 km/h (2 Bft)
21.06.2015 14:55 13,7 C 16,2 C 74 % 1020,6 hPa 0,0 mm 4,7 km/h (1 Bft) S 180 9,2 C 7,0 km/h (2 Bft)
21.06.2015 15:00 14,3 C 17,5 C 74 % 1020,6 hPa 0,0 mm 4,4 km/h (1 Bft) W-SW 247 9,7 C 17,9 km/h (3 Bft)
21.06.2015 15:05 14,4 C 17,8 C 73 % 1020,6 hPa 0,0 mm 5,4 km/h (1 Bft) S 180 9,6 C 8,5 km/h (2 Bft)
21.06.2015 15:10 15,0 C 18,8 C 73 % 1020,6 hPa 0,0 mm 8,3 km/h (2 Bft) SO 135 10,2 C 19,2 km/h (3 Bft)
21.06.2015 15:15 15,2 C 19,4 C 72 % 1020,6 hPa 0,0 mm 8,5 km/h (2 Bft) SO 135 10,2 C 12,9 km/h (3 Bft)
21.06.2015 15:20 15,0 C 18,6 C 72 % 1020,6 hPa 0,0 mm 6,2 km/h (2 Bft) N-NW 337 10,0 C 0,0 km/h (0 Bft)
21.06.2015 15:25 14,9 C 18,0 C 71 % 1020,6 hPa 0,0 mm 7,0 km/h (2 Bft) NW 315 9,7 C 5,4 km/h (1 Bft)
21.06.2015 15:30 15,1 C 18,3 C 72 % 1020,6 hPa 0,0 mm 6,2 km/h (2 Bft) W-NW 292 10,1 C 24,3 km/h (4 Bft)
21.06.2015 15:35 15,1 C 18,4 C 72 % 1020,6 hPa 0,0 mm 4,4 km/h (1 Bft) W 270 10,1 C 7,0 km/h (2 Bft)
21.06.2015 15:40 14,9 C 17,8 C 72 % 1020,6 hPa 0,0 mm 5,4 km/h (1 Bft) W-SW 247 9,9 C 9,8 km/h (2 Bft)
21.06.2015 15:45 14,5 C 16,9 C 72 % 1020,6 hPa 0,0 mm 5,7 km/h (1 Bft) W-NW 292 9,5 C 6,7 km/h (2 Bft)
21.06.2015 15:50 14,5 C 16,5 C 73 % 1020,6 hPa 0,0 mm 4,9 km/h (1 Bft) NW 315 9,7 C 21,8 km/h (4 Bft)
21.06.2015 15:55 14,5 C 16,8 C 73 % 1020,3 hPa 0,0 mm 5,7 km/h (1 Bft) SW 225 9,7 C 4,1 km/h (1 Bft)
21.06.2015 16:00 14,7 C 16,9 C 73 % 1020,3 hPa 0,0 mm 4,9 km/h (1 Bft) W-NW 292 9,9 C 9,3 km/h (2 Bft)
21.06.2015 16:05 14,5 C 16,7 C 73 % 1020,3 hPa 0,0 mm 3,1 km/h (1 Bft) NW 315 9,7 C 2,6 km/h (1 Bft)
21.06.2015 16:10 14,2 C 16,0 C 73 % 1020,3 hPa 0,0 mm 3,9 km/h (1 Bft) S 180 9,4 C 6,5 km/h (2 Bft)
21.06.2015 16:15 14,2 C 15,9 C 73 % 1020,4 hPa 0,0 mm 3,6 km/h (1 Bft) S-SW 202 9,4 C 2,6 km/h (1 Bft)
21.06.2015 16:20 14,3 C 15,9 C 74 % 1020,4 hPa 0,0 mm 2,6 km/h (1 Bft) SO 135 9,7 C 0,0 km/h (0 Bft)
21.06.2015 16:25 14,2 C 15,8 C 74 % 1020,4 hPa 0,0 mm 2,1 km/h (1 Bft) O-SO 112 9,6 C 0,0 km/h (0 Bft)
21.06.2015 16:30 14,3 C 15,8 C 74 % 1020,4 hPa 0,0 mm 2,3 km/h (1 Bft) S 180 9,7 C 5,4 km/h (1 Bft)
21.06.2015 16:35 14,3 C 15,9 C 74 % 1020,3 hPa 0,0 mm 2,3 km/h (1 Bft) S-SO 157 9,7 C 3,9 km/h (1 Bft)
21.06.2015 16:40 14,5 C 16,5 C 74 % 1020,3 hPa 0,0 mm 3,9 km/h (1 Bft) NW 315 9,9 C 5,4 km/h (1 Bft)
21.06.2015 16:45 14,9 C 17,8 C 73 % 1020,3 hPa 0,0 mm 6,2 km/h (2 Bft) S 180 10,1 C 8,8 km/h (2 Bft)
21.06.2015 16:50 15,1 C 18,9 C 73 % 1020,3 hPa 0,0 mm 6,7 km/h (2 Bft) W-NW 292 10,3 C 13,2 km/h (3 Bft)
21.06.2015 16:55 15,2 C 19,0 C 73 % 1020,1 hPa 0,0 mm 7,3 km/h (2 Bft) W-NW 292 10,4 C 9,6 km/h (2 Bft)
21.06.2015 17:00 15,2 C 18,9 C 72 % 1020,1 hPa 0,0 mm 8,0 km/h (2 Bft) NW 315 10,2 C 10,9 km/h (2 Bft)
21.06.2015 17:05 15,2 C 18,6 C 72 % 1020,1 hPa 0,0 mm 7,0 km/h (2 Bft) N-NW 337 10,2 C 6,2 km/h (2 Bft)
21.06.2015 17:10 15,2 C 18,1 C 72 % 1020,1 hPa 0,0 mm 6,5 km/h (2 Bft) NW 315 10,2 C 6,7 km/h (2 Bft)
21.06.2015 17:15 15,2 C 18,0 C 72 % 1020,1 hPa 0,0 mm 8,3 km/h (2 Bft) S 180 10,2 C 14,5 km/h (3 Bft)
21.06.2015 17:20 15,0 C 17,4 C 72 % 1020,1 hPa 0,0 mm 7,8 km/h (2 Bft) W-SW 247 10,0 C 4,9 km/h (1 Bft)
21.06.2015 17:25 15,0 C 17,4 C 72 % 1020,1 hPa 0,0 mm 7,3 km/h (2 Bft) W 270 10,0 C 9,6 km/h (2 Bft)
21.06.2015 17:30 15,2 C 17,7 C 72 % 1020,1 hPa 0,0 mm 4,7 km/h (1 Bft) N-NW 337 10,2 C 3,4 km/h (1 Bft)
21.06.2015 17:35 15,4 C 18,1 C 72 % 1019,9 hPa 0,0 mm 4,7 km/h (1 Bft) O-SO 112 10,4 C 3,4 km/h (1 Bft)
21.06.2015 17:40 15,4 C 18,2 C 71 % 1019,9 hPa 0,0 mm 6,5 km/h (2 Bft) NW 315 10,2 C 4,9 km/h (1 Bft)
21.06.2015 17:45 15,4 C 18,1 C 72 % 1019,9 hPa 0,0 mm 5,2 km/h (1 Bft) W-NW 292 10,4 C 4,9 km/h (1 Bft)
21.06.2015 17:50 15,3 C 17,7 C 72 % 1019,9 hPa 0,0 mm 5,4 km/h (1 Bft) SO 135 10,3 C 9,1 km/h (2 Bft)
21.06.2015 17:55 15,2 C 17,4 C 72 % 1019,8 hPa 0,0 mm 6,5 km/h (2 Bft) S 180 10,2 C 10,6 km/h (2 Bft)
21.06.2015 18:00 15,0 C 17,0 C 72 % 1019,8 hPa 0,0 mm 6,5 km/h (2 Bft) SW 225 10,0 C 7,0 km/h (2 Bft)
21.06.2015 18:05 15,0 C 17,0 C 72 % 1019,8 hPa 0,0 mm 5,2 km/h (1 Bft) NW 315 10,0 C 9,3 km/h (2 Bft)
21.06.2015 18:10 15,3 C 17,3 C 72 % 1019,8 hPa 0,0 mm 4,1 km/h (1 Bft) W-NW 292 10,3 C 5,4 km/h (1 Bft)
21.06.2015 18:15 15,3 C 17,4 C 72 % 1019,8 hPa 0,0 mm 2,8 km/h (1 Bft) NO 45 10,3 C 4,4 km/h (1 Bft)
21.06.2015 18:20 15,3 C 17,3 C 72 % 1019,8 hPa 0,0 mm 2,1 km/h (1 Bft) W-SW 247 10,3 C 0,0 km/h (0 Bft)
21.06.2015 18:25 15,3 C 17,3 C 72 % 1019,8 hPa 0,0 mm 2,6 km/h (1 Bft) W 270 10,3 C 0,0 km/h (0 Bft)
21.06.2015 18:29 15,0 C 16,8 C 71 % 1019,8 hPa 0,0 mm 3,9 km/h (1 Bft) W-SW 247 9,8 C 0,0 km/h (0 Bft)
21.06.2015 18:30 15,0 C 16,8 C 71 % 1019,8 hPa 0,0 mm 3,9 km/h (1 Bft) W-SW 247 9,8 C 0,0 km/h (0 Bft)
21.06.2015 18:35 15,0 C 17,0 C 72 % 1019,7 hPa 0,0 mm 2,8 km/h (1 Bft) O-SO 112 10,0 C 0,0 km/h (0 Bft)
21.06.2015 18:40 15,4 C 19,1 C 72 % 1019,7 hPa 0,0 mm 1,6 km/h (1 Bft) NW 315 10,4 C 4,1 km/h (1 Bft)
21.06.2015 18:45 15,6 C 20,1 C 72 % 1019,7 hPa 0,0 mm 2,1 km/h (1 Bft) NW 315 10,6 C 0,0 km/h (0 Bft)
21.06.2015 18:50 15,9 C 21,0 C 72 % 1019,7 hPa 0,0 mm 3,1 km/h (1 Bft) W-NW 292 10,9 C 4,7 km/h (1 Bft)
21.06.2015 18:55 15,9 C 20,6 C 72 % 1019,7 hPa 0,0 mm 3,1 km/h (1 Bft) W 270 10,9 C 3,6 km/h (1 Bft)
21.06.2015 19:00 15,8 C 20,1 C 71 % 1019,7 hPa 0,0 mm 3,9 km/h (1 Bft) W 270 10,6 C 3,6 km/h (1 Bft)
21.06.2015 19:05 15,8 C 20,1 C 71 % 1019,7 hPa 0,0 mm 3,6 km/h (1 Bft) NW 315 10,6 C 12,4 km/h (3 Bft)
21.06.2015 19:10 15,6 C 19,8 C 71 % 1019,7 hPa 0,0 mm 3,1 km/h (1 Bft) S-SW 202 10,4 C 0,0 km/h (0 Bft)
21.06.2015 19:15 15,5 C 19,4 C 71 % 1019,5 hPa 0,0 mm 2,3 km/h (1 Bft) NW 315 10,3 C 4,1 km/h (1 Bft)
21.06.2015 19:20 15,5 C 18,6 C 72 % 1019,5 hPa 0,0 mm 0,8 km/h (0 Bft) W-SW 247 10,5 C 0,0 km/h (0 Bft)
21.06.2015 19:25 15,3 C 18,0 C 72 % 1019,5 hPa 0,0 mm 1,3 km/h (1 Bft) SW 225 10,3 C 4,7 km/h (1 Bft)
21.06.2015 19:30 15,1 C 17,2 C 72 % 1019,5 hPa 0,0 mm 1,3 km/h (1 Bft) S-SW 202 10,1 C 0,0 km/h (0 Bft)
21.06.2015 19:35 15,0 C 16,9 C 72 % 1019,4 hPa 0,0 mm 1,0 km/h (0 Bft) S-SW 202 10,0 C 0,0 km/h (0 Bft)
21.06.2015 19:40 14,9 C 16,6 C 73 % 1019,4 hPa 0,0 mm 0,0 km/h (0 Bft) SW 225 10,1 C 0,0 km/h (0 Bft)
21.06.2015 19:45 14,9 C 16,4 C 73 % 1019,4 hPa 0,0 mm 0,3 km/h (0 Bft) SO 135 10,1 C 0,0 km/h (0 Bft)
21.06.2015 19:50 14,7 C 16,2 C 73 % 1019,4 hPa 0,0 mm 0,5 km/h (0 Bft) NW 315 9,9 C 0,0 km/h (0 Bft)
21.06.2015 19:55 14,9 C 16,8 C 73 % 1019,3 hPa 0,0 mm 0,5 km/h (0 Bft) W 270 10,1 C 0,0 km/h (0 Bft)
21.06.2015 20:00 14,9 C 16,6 C 73 % 1019,3 hPa 0,0 mm 1,0 km/h (0 Bft) SW 225 10,1 C 6,0 km/h (2 Bft)
21.06.2015 20:05 14,7 C 16,1 C 73 % 1019,3 hPa 0,0 mm 2,3 km/h (1 Bft) W-SW 247 9,9 C 3,6 km/h (1 Bft)
21.06.2015 20:10 14,5 C 15,6 C 73 % 1019,3 hPa 0,0 mm 3,4 km/h (1 Bft) S 180 9,7 C 5,2 km/h (1 Bft)
21.06.2015 20:15 14,4 C 15,6 C 73 % 1019,2 hPa 0,0 mm 2,3 km/h (1 Bft) S-SW 202 9,6 C 0,0 km/h (0 Bft)
21.06.2015 20:20 14,2 C 15,5 C 73 % 1019,2 hPa 0,0 mm 3,1 km/h (1 Bft) W-SW 247 9,4 C 8,0 km/h (2 Bft)
21.06.2015 20:25 14,2 C 15,2 C 73 % 1019,2 hPa 0,0 mm 4,1 km/h (1 Bft) SW 225 9,4 C 7,5 km/h (2 Bft)
21.06.2015 20:30 14,0 C 15,2 C 74 % 1019,2 hPa 0,0 mm 3,4 km/h (1 Bft) S-SW 202 9,4 C 0,0 km/h (0 Bft)
21.06.2015 20:35 13,9 C 15,5 C 74 % 1019,2 hPa 0,0 mm 1,6 km/h (1 Bft) SW 225 9,3 C 0,0 km/h (0 Bft)
21.06.2015 20:40 13,9 C 15,5 C 75 % 1019,2 hPa 0,0 mm 2,8 km/h (1 Bft) S-SW 202 9,5 C 4,9 km/h (1 Bft)
21.06.2015 20:45 13,8 C 15,1 C 75 % 1019,2 hPa 0,0 mm 3,9 km/h (1 Bft) S-SW 202 9,4 C 2,6 km/h (1 Bft)
21.06.2015 20:50 13,3 C 14,2 C 75 % 1019,2 hPa 0,0 mm 1,8 km/h (1 Bft) S-SO 157 9,0 C 0,0 km/h (0 Bft)
21.06.2015 20:55 12,9 C 13,6 C 77 % 1019,2 hPa 0,0 mm 0,5 km/h (0 Bft) S-SO 157 9,0 C 0,0 km/h (0 Bft)
21.06.2015 21:00 12,6 C 12,8 C 78 % 1019,2 hPa 0,0 mm 0,5 km/h (0 Bft) S-SO 157 8,9 C 2,8 km/h (1 Bft)
21.06.2015 21:05 12,3 C 12,4 C 79 % 1019,2 hPa 0,0 mm 0,3 km/h (0 Bft) S-SO 157 8,8 C 0,0 km/h (0 Bft)
21.06.2015 21:10 11,9 C 11,8 C 79 % 1019,2 hPa 0,0 mm 0,3 km/h (0 Bft) S-SO 157 8,4 C 0,0 km/h (0 Bft)
21.06.2015 21:15 11,7 C 11,6 C 79 % 1018,9 hPa 0,0 mm 0,0 km/h (0 Bft) S-SO 157 8,2 C 0,0 km/h (0 Bft)
21.06.2015 21:20 11,5 C 11,4 C 80 % 1018,9 hPa 0,0 mm 0,3 km/h (0 Bft) S-SO 157 8,2 C 0,0 km/h (0 Bft)
21.06.2015 21:25 11,3 C 11,2 C 81 % 1018,9 hPa 0,0 mm 0,3 km/h (0 Bft) S 180 8,2 C 0,0 km/h (0 Bft)
21.06.2015 21:30 10,9 C 10,8 C 82 % 1018,9 hPa 0,0 mm 0,3 km/h (0 Bft) S 180 7,9 C 0,0 km/h (0 Bft)
21.06.2015 21:35 10,9 C 10,8 C 82 % 1018,9 hPa 0,0 mm 0,3 km/h (0 Bft) SW 225 7,9 C 0,0 km/h (0 Bft)
21.06.2015 21:40 10,9 C 10,7 C 83 % 1018,9 hPa 0,0 mm 1,6 km/h (1 Bft) S-SO 157 8,1 C 0,0 km/h (0 Bft)
21.06.2015 21:45 10,9 C 10,7 C 83 % 1018,9 hPa 0,0 mm 1,6 km/h (1 Bft) S-SO 157 8,1 C 0,0 km/h (0 Bft)
21.06.2015 21:50 11,0 C 10,8 C 83 % 1018,9 hPa 0,0 mm 0,0 km/h (0 Bft) S-SO 157 8,2 C 0,0 km/h (0 Bft)
21.06.2015 21:55 10,9 C 10,7 C 83 % 1019,3 hPa 0,0 mm 0,0 km/h (0 Bft) S-SO 157 8,1 C 0,0 km/h (0 Bft)
21.06.2015 22:00 10,6 C 10,4 C 84 % 1019,3 hPa 0,0 mm 0,0 km/h (0 Bft) S-SW 202 8,0 C 0,0 km/h (0 Bft)
21.06.2015 22:05 10,5 C 10,3 C 84 % 1019,3 hPa 0,0 mm 0,0 km/h (0 Bft) S-SO 157 7,9 C 0,0 km/h (0 Bft)
21.06.2015 22:10 10,4 C 10,2 C 84 % 1019,3 hPa 0,0 mm 0,0 km/h (0 Bft) S-SO 157 7,8 C 0,0 km/h (0 Bft)
21.06.2015 22:15 10,4 C 10,2 C 84 % 1019,0 hPa 0,0 mm 0,3 km/h (0 Bft) S 180 7,8 C 0,0 km/h (0 Bft)
21.06.2015 22:20 10,5 C 10,3 C 85 % 1019,0 hPa 0,0 mm 0,3 km/h (0 Bft) S-SW 202 8,1 C 0,0 km/h (0 Bft)
21.06.2015 22:25 10,4 C 10,2 C 85 % 1019,0 hPa 0,0 mm 0,0 km/h (0 Bft) SW 225 8,0 C 0,0 km/h (0 Bft)
21.06.2015 22:30 10,5 C 10,3 C 85 % 1019,0 hPa 0,0 mm 0,0 km/h (0 Bft) S-SW 202 8,1 C 0,0 km/h (0 Bft)
21.06.2015 22:35 10,6 C 10,5 C 83 % 1019,1 hPa 0,0 mm 0,0 km/h (0 Bft) S-SW 202 7,8 C 0,0 km/h (0 Bft)
21.06.2015 22:40 10,7 C 10,7 C 83 % 1019,1 hPa 0,0 mm 0,0 km/h (0 Bft) S-SO 157 7,9 C 0,0 km/h (0 Bft)
21.06.2015 22:45 10,8 C 10,8 C 83 % 1019,1 hPa 0,0 mm 0,8 km/h (0 Bft) SO 135 8,0 C 3,1 km/h (1 Bft)
21.06.2015 22:50 11,0 C 11,0 C 83 % 1019,1 hPa 0,0 mm 1,8 km/h (1 Bft) S 180 8,2 C 2,6 km/h (1 Bft)
21.06.2015 22:55 11,1 C 11,0 C 86 % 1018,9 hPa 0,0 mm 1,3 km/h (1 Bft) S 180 8,8 C 0,0 km/h (0 Bft)
21.06.2015 23:00 11,2 C 11,1 C 85 % 1018,9 hPa 0,0 mm 0,3 km/h (0 Bft) SO 135 8,8 C 0,0 km/h (0 Bft)
21.06.2015 23:05 11,1 C 11,0 C 85 % 1018,9 hPa 0,0 mm 0,0 km/h (0 Bft) W-SW 247 8,7 C 0,0 km/h (0 Bft)
21.06.2015 23:10 11,2 C 11,1 C 85 % 1018,9 hPa 0,0 mm 0,0 km/h (0 Bft) SO 135 8,8 C 0,0 km/h (0 Bft)
21.06.2015 23:15 11,1 C 11,1 C 85 % 1018,4 hPa 0,0 mm 0,0 km/h (0 Bft) S-SO 157 8,7 C 0,0 km/h (0 Bft)
21.06.2015 23:20 11,1 C 11,1 C 85 % 1018,4 hPa 0,0 mm 0,0 km/h (0 Bft) S-SO 157 8,7 C 0,0 km/h (0 Bft)
21.06.2015 23:25 11,1 C 11,1 C 83 % 1018,4 hPa 0,0 mm 1,3 km/h (1 Bft) S-SW 202 8,3 C 10,4 km/h (2 Bft)
21.06.2015 23:30 11,6 C 11,4 C 84 % 1018,4 hPa 0,0 mm 6,7 km/h (2 Bft) SW 225 9,0 C 11,7 km/h (2 Bft)
21.06.2015 23:35 11,5 C 11,3 C 83 % 1018,6 hPa 0,0 mm 8,0 km/h (2 Bft) W-NW 292 8,7 C 6,2 km/h (2 Bft)
21.06.2015 23:40 11,3 C 11,1 C 84 % 1018,6 hPa 0,0 mm 4,4 km/h (1 Bft) S 180 8,7 C 9,3 km/h (2 Bft)
21.06.2015 23:45 11,5 C 11,3 C 84 % 1018,6 hPa 0,0 mm 4,4 km/h (1 Bft) SW 225 8,9 C 9,3 km/h (2 Bft)
21.06.2015 23:50 11,8 C 11,6 C 83 % 1018,6 hPa 0,0 mm 6,5 km/h (2 Bft) S 180 9,0 C 5,7 km/h (1 Bft)
21.06.2015 23:55 11,6 C 11,5 C 83 % 1018,9 hPa 0,0 mm 5,2 km/h (1 Bft) SW 225 8,8 C 2,6 km/h (1 Bft)
_ Min-Zeit 04:45 04:45 19:15 23:30 - 23:20 - - 05:15 23:20
Minimum _ 6,8 C 6,6 C 71 % 1018,4 hPa - 0,0 km/h (0 Bft) - - 5,1 C 0,0 km/h (0 Bft)
_ Max-Zeit 18:55 18:50 06:30 00:10 07:25 15:15 - - 18:55 15:30
Maximum _ 15,9 C 21,0 C 92 % 1022,3 hPa 0,7 mm 8,5 km/h
SO (2 Bft)
- - 10,9 C 24,3 km/h
W-NW (4 Bft)
Durchschnitt _ 10,8 C 11,8 C 82 % 1020,5 hPa #0,7 mm 2,6 km/h (1 Bft) SW - 7,9 C 3,6 km/h (1 Bft)